createdAt,value
2018-06-29T00:02:18.516Z,1.60
2018-06-29T00:04:44.442Z,1.97
2018-06-29T00:07:10.349Z,1.53
2018-06-29T00:09:36.273Z,1.27
2018-06-29T00:12:02.200Z,1.37
2018-06-29T00:14:28.105Z,1.30
2018-06-29T00:16:54.023Z,1.60
2018-06-29T00:19:20.653Z,1.23
2018-06-29T00:21:47.359Z,2.33
2018-06-29T00:24:13.278Z,1.40
2018-06-29T00:26:39.968Z,2.10
2018-06-29T00:29:05.867Z,1.40
2018-06-29T00:31:32.525Z,1.20
2018-06-29T00:33:58.454Z,1.27
2018-06-29T00:36:24.364Z,1.37
2018-06-29T00:38:51.078Z,1.77
2018-06-29T00:41:16.984Z,1.43
2018-06-29T00:43:42.905Z,1.73
2018-06-29T00:46:08.798Z,2.07
2018-06-29T00:48:34.721Z,2.00
2018-06-29T00:51:00.643Z,1.70
2018-06-29T00:53:26.543Z,1.23
2018-06-29T00:55:52.471Z,2.00
2018-06-29T00:58:18.367Z,2.27
2018-06-29T01:00:45.022Z,1.87
2018-06-29T01:03:10.929Z,1.60
2018-06-29T01:05:37.588Z,1.47
2018-06-29T01:08:03.492Z,2.17
2018-06-29T01:10:30.157Z,2.00
2018-06-29T01:12:56.070Z,1.40
2018-06-29T01:15:22.006Z,1.83
2018-06-29T01:17:47.911Z,1.60
2018-06-29T01:20:13.824Z,1.90
2018-06-29T01:22:39.761Z,1.83
2018-06-29T01:25:05.660Z,1.40
2018-06-29T01:27:32.314Z,3.03
2018-06-29T01:29:58.218Z,1.93
2018-06-29T01:32:24.876Z,2.47
2018-06-29T01:34:50.834Z,1.43
2018-06-29T01:37:16.734Z,1.70
2018-06-29T01:39:42.634Z,1.67
2018-06-29T01:42:08.528Z,2.10
2018-06-29T01:44:35.188Z,1.90
2018-06-29T01:47:01.094Z,1.63
2018-06-29T01:49:27.755Z,2.13
2018-06-29T01:51:53.654Z,2.07
2018-06-29T01:54:20.306Z,1.70
2018-06-29T01:56:46.216Z,2.13
2018-06-29T01:59:12.920Z,2.03
2018-06-29T02:01:38.819Z,2.10
2018-06-29T02:04:04.728Z,1.83
2018-06-29T02:06:30.653Z,2.60
2018-06-29T02:08:56.577Z,1.97
2018-06-29T02:11:22.502Z,2.00
2018-06-29T02:13:48.408Z,1.37
2018-06-29T02:16:14.331Z,2.70
2018-06-29T02:18:40.231Z,1.73
2018-06-29T02:21:06.906Z,2.67
2018-06-29T02:23:32.805Z,2.10
2018-06-29T02:25:58.728Z,2.23
2018-06-29T02:28:24.659Z,2.33
2018-06-29T02:30:50.695Z,2.83
2018-06-29T02:33:16.520Z,1.67
2018-06-29T02:35:42.435Z,2.30
2018-06-29T02:38:08.359Z,2.43
2018-06-29T02:40:34.275Z,1.50
2018-06-29T02:43:00.215Z,1.77
2018-06-29T02:45:26.125Z,2.10
2018-06-29T02:47:52.035Z,2.17
2018-06-29T02:50:17.963Z,2.73
2018-06-29T02:52:43.945Z,1.87
2018-06-29T02:55:09.818Z,1.73
2018-06-29T02:57:35.743Z,1.83
2018-06-29T03:00:01.673Z,2.00
2018-06-29T03:02:27.578Z,1.97
2018-06-29T03:04:53.510Z,2.13
2018-06-29T03:07:19.413Z,1.67
2018-06-29T03:09:45.331Z,1.43
2018-06-29T03:12:11.246Z,1.90
2018-06-29T03:14:37.146Z,2.27
2018-06-29T03:17:03.071Z,2.47
2018-06-29T03:19:28.968Z,1.33
2018-06-29T03:21:55.653Z,1.67
2018-06-29T03:24:21.556Z,1.60
2018-06-29T03:26:47.464Z,1.30
2018-06-29T03:29:14.130Z,1.00
2018-06-29T03:31:40.042Z,1.43
2018-06-29T03:34:05.976Z,1.20
2018-06-29T03:36:31.877Z,1.07
2018-06-29T03:38:57.794Z,1.47
2018-06-29T03:41:23.687Z,1.57
2018-06-29T03:43:49.619Z,0.97
2018-06-29T03:46:16.261Z,1.57
2018-06-29T03:48:42.920Z,1.33
2018-06-29T03:51:08.852Z,1.17
2018-06-29T03:53:34.769Z,1.50
2018-06-29T03:56:00.695Z,1.00
2018-06-29T03:58:26.598Z,1.50
2018-06-29T04:00:52.531Z,1.50
2018-06-29T04:03:18.488Z,1.40
2018-06-29T04:05:44.383Z,1.63
2018-06-29T04:08:10.286Z,1.97
2018-06-29T04:10:36.211Z,1.20
2018-06-29T04:13:02.261Z,1.40
2018-06-29T04:15:28.055Z,1.33
2018-06-29T04:17:53.974Z,1.30
2018-06-29T04:20:19.874Z,1.30
2018-06-29T04:22:46.553Z,1.30
2018-06-29T04:25:12.476Z,1.33
2018-06-29T04:27:38.390Z,1.50
2018-06-29T04:30:04.285Z,1.33
2018-06-29T04:32:30.960Z,1.70
2018-06-29T04:34:56.864Z,1.30
2018-06-29T04:37:22.774Z,1.20
2018-06-29T04:39:48.719Z,1.37
2018-06-29T04:42:14.628Z,1.47
2018-06-29T04:44:40.555Z,1.30
2018-06-29T04:47:06.461Z,1.33
2018-06-29T04:49:32.392Z,1.87
2018-06-29T04:51:58.287Z,1.90
2018-06-29T04:54:25.303Z,1.67
2018-06-29T04:56:51.216Z,1.87
2018-06-29T04:59:17.121Z,1.07
2018-06-29T05:01:43.051Z,1.40
2018-06-29T05:04:08.971Z,1.70
2018-06-29T05:06:34.896Z,1.57
2018-06-29T05:09:00.788Z,1.40
2018-06-29T05:11:26.741Z,1.30
2018-06-29T05:13:52.655Z,1.03
2018-06-29T05:16:18.589Z,1.70
2018-06-29T05:18:44.483Z,1.97
2018-06-29T05:21:10.400Z,1.23
2018-06-29T05:23:36.323Z,1.40
2018-06-29T05:26:02.230Z,1.93
2018-06-29T05:28:28.215Z,1.60
2018-06-29T05:30:54.087Z,1.50
2018-06-29T05:33:20.008Z,1.60
2018-06-29T05:35:45.926Z,1.70
2018-06-29T05:38:11.962Z,1.17
2018-06-29T05:40:37.870Z,1.80
2018-06-29T05:43:03.775Z,1.83
2018-06-29T05:45:29.698Z,1.70
2018-06-29T05:47:56.339Z,1.27
2018-06-29T05:50:22.999Z,1.70
2018-06-29T05:52:48.903Z,0.93
2018-06-29T05:55:14.827Z,1.50
2018-06-29T05:57:40.727Z,1.23
2018-06-29T06:00:07.636Z,1.30
2018-06-29T06:02:33.539Z,1.47
2018-06-29T06:04:59.440Z,1.90
2018-06-29T06:07:25.384Z,1.53
2018-06-29T06:09:51.300Z,1.60
2018-06-29T06:12:17.219Z,1.50
2018-06-29T06:14:43.131Z,1.70
2018-06-29T06:17:09.052Z,1.33
2018-06-29T06:19:34.950Z,1.67
2018-06-29T06:22:01.666Z,2.00
2018-06-29T06:24:27.548Z,1.50
2018-06-29T06:26:53.481Z,1.47
2018-06-29T06:29:19.402Z,1.30
2018-06-29T06:31:45.304Z,1.33
2018-06-29T06:34:11.220Z,1.40
2018-06-29T06:36:37.139Z,1.67
2018-06-29T06:39:03.051Z,1.30
2018-06-29T06:41:28.970Z,1.40
2018-06-29T06:43:54.894Z,1.50
2018-06-29T06:46:20.798Z,1.27
2018-06-29T06:48:47.463Z,1.70
2018-06-29T06:51:13.363Z,1.57
2018-06-29T06:53:40.048Z,1.40
2018-06-29T06:56:05.952Z,1.70
2018-06-29T06:58:31.873Z,1.47
2018-06-29T07:00:57.789Z,1.40
2018-06-29T07:03:23.692Z,1.53
2018-06-29T07:05:49.634Z,1.50
2018-06-29T07:08:15.533Z,1.53
2018-06-29T07:10:42.192Z,1.70
2018-06-29T07:13:08.100Z,1.70
2018-06-29T07:15:33.999Z,1.70
2018-06-29T07:18:00.685Z,1.50
2018-06-29T07:20:26.589Z,1.53
2018-06-29T07:22:52.546Z,1.43
2018-06-29T07:25:18.454Z,1.70
2018-06-29T07:27:44.404Z,1.57
2018-06-29T07:30:10.330Z,1.40
2018-06-29T07:32:36.231Z,1.27
2018-06-29T07:35:02.150Z,1.20
2018-06-29T07:37:28.050Z,1.40
2018-06-29T07:39:53.962Z,1.50
2018-06-29T07:42:19.867Z,1.60
2018-06-29T07:44:45.796Z,1.52
2018-06-29T07:47:11.704Z,1.45
2018-06-29T07:49:38.403Z,1.62
2018-06-29T07:52:04.316Z,1.67
2018-06-29T07:54:30.232Z,1.60
2018-06-29T07:56:56.160Z,1.70
2018-06-29T07:59:22.076Z,1.50
2018-06-29T08:01:48.015Z,1.60
2018-06-29T08:04:13.910Z,1.48
2018-06-29T08:06:39.830Z,1.35
2018-06-29T08:09:05.742Z,1.60
2018-06-29T08:11:31.662Z,1.30
2018-06-29T08:13:57.568Z,1.70
2018-06-29T08:16:23.514Z,1.60
2018-06-29T08:18:49.415Z,1.37
2018-06-29T08:21:15.333Z,1.60
2018-06-29T08:23:41.255Z,1.60
2018-06-29T08:26:07.152Z,1.70
2018-06-29T08:28:33.828Z,1.37
2018-06-29T08:30:59.731Z,1.60
2018-06-29T08:33:25.650Z,1.40
2018-06-29T08:35:51.561Z,2.00
2018-06-29T08:38:18.237Z,1.60
2018-06-29T08:40:44.151Z,1.48
2018-06-29T08:43:10.073Z,1.45
2018-06-29T08:45:35.978Z,1.50
2018-06-29T08:48:01.893Z,1.62
2018-06-29T08:50:28.553Z,1.25
2018-06-29T08:52:54.441Z,1.65
2018-06-29T08:55:21.107Z,1.42
2018-06-29T08:57:47.015Z,1.50
2018-06-29T09:00:12.928Z,1.40
2018-06-29T09:02:39.592Z,1.30
2018-06-29T09:05:05.558Z,1.40
2018-06-29T09:07:31.475Z,1.37
2018-06-29T09:09:57.381Z,1.50
2018-06-29T09:12:23.331Z,1.48
2018-06-29T09:14:49.251Z,1.30
2018-06-29T09:17:15.168Z,1.70
2018-06-29T09:19:41.075Z,1.35
2018-06-29T09:22:07.002Z,1.48
2018-06-29T09:24:32.916Z,1.35
2018-06-29T09:26:58.815Z,1.27
2018-06-29T09:29:24.748Z,1.50
2018-06-29T09:31:50.654Z,1.33
2018-06-29T09:34:16.584Z,1.62
2018-06-29T09:36:42.496Z,1.15
2018-06-29T09:39:08.418Z,0.93
2018-06-29T09:41:34.328Z,1.62
2018-06-29T09:44:00.255Z,1.45
2018-06-29T09:46:26.149Z,1.58
2018-06-29T09:48:52.807Z,1.30
2018-06-29T09:51:18.724Z,1.37
2018-06-29T09:53:44.622Z,1.73
2018-06-29T09:56:11.285Z,1.50
2018-06-29T09:58:37.205Z,1.70
2018-06-29T10:01:03.207Z,1.80
2018-06-29T10:03:29.097Z,1.37
2018-06-29T10:05:55.045Z,1.70
2018-06-29T10:08:20.954Z,1.40
2018-06-29T10:10:46.847Z,1.50
2018-06-29T10:13:12.772Z,1.40
2018-06-29T10:15:38.674Z,1.70
2018-06-29T10:18:04.597Z,1.47
2018-06-29T10:20:30.496Z,1.90
2018-06-29T10:22:57.195Z,1.30
2018-06-29T10:25:23.144Z,1.37
2018-06-29T10:27:49.032Z,1.40
2018-06-29T10:30:14.934Z,1.50
2018-06-29T10:32:40.860Z,1.50
2018-06-29T10:35:06.813Z,1.70
2018-06-29T10:37:32.722Z,1.37
2018-06-29T10:39:58.632Z,1.27
2018-06-29T10:42:24.537Z,1.40
2018-06-29T10:44:50.477Z,1.13
2018-06-29T10:47:16.391Z,1.40
2018-06-29T10:49:42.303Z,1.37
2018-06-29T10:52:08.210Z,1.23
2018-06-29T10:54:34.126Z,1.13
2018-06-29T10:57:00.125Z,1.90
2018-06-29T10:59:26.811Z,1.60
2018-06-29T11:01:52.727Z,1.50
2018-06-29T11:04:18.639Z,1.10
2018-06-29T11:06:44.573Z,1.20
2018-06-29T11:09:10.492Z,1.10
2018-06-29T11:11:36.444Z,1.27
2018-06-29T11:14:02.351Z,1.20
2018-06-29T11:16:28.291Z,1.10
2018-06-29T11:18:54.203Z,1.20
2018-06-29T11:21:20.118Z,1.53
2018-06-29T11:23:46.792Z,1.10
2018-06-29T11:26:13.436Z,1.30
2018-06-29T11:28:40.127Z,1.47
2018-06-29T11:31:06.039Z,1.30
2018-06-29T11:33:31.974Z,1.70
2018-06-29T11:35:57.864Z,1.47
2018-06-29T11:38:23.829Z,1.63
2018-06-29T11:40:49.735Z,1.07
2018-06-29T11:43:16.443Z,1.73
2018-06-29T11:45:42.337Z,1.80
2018-06-29T11:48:09.007Z,1.50
2018-06-29T11:50:34.949Z,1.27
2018-06-29T11:53:00.855Z,1.50
2018-06-29T11:55:26.775Z,1.30
2018-06-29T11:57:52.684Z,1.50
2018-06-29T12:00:18.610Z,1.60
2018-06-29T12:02:44.523Z,1.50
2018-06-29T12:05:11.176Z,1.30
2018-06-29T12:07:37.112Z,1.63
2018-06-29T12:10:03.054Z,1.67
2018-06-29T12:12:28.962Z,1.77
2018-06-29T12:14:54.877Z,1.50
2018-06-29T12:17:20.802Z,1.43
2018-06-29T12:19:46.702Z,1.83
2018-06-29T12:22:12.624Z,1.17
2018-06-29T12:24:38.545Z,1.70
2018-06-29T12:27:04.490Z,1.63
2018-06-29T12:29:30.411Z,1.70
2018-06-29T12:31:56.340Z,1.60
2018-06-29T12:34:22.249Z,1.50
2018-06-29T12:36:48.158Z,1.60
2018-06-29T12:39:14.080Z,1.77
2018-06-29T12:41:39.987Z,1.73
2018-06-29T12:44:05.903Z,1.57
2018-06-29T12:46:32.547Z,1.97
2018-06-29T12:48:58.471Z,1.60
2018-06-29T12:51:24.399Z,1.73
2018-06-29T12:53:50.332Z,2.00
2018-06-29T12:56:16.241Z,1.77
2018-06-29T12:58:42.167Z,2.00
2018-06-29T13:01:08.148Z,1.80
2018-06-29T13:03:34.059Z,2.10
2018-06-29T13:05:59.999Z,1.83
2018-06-29T13:08:26.654Z,2.10
2018-06-29T13:10:52.586Z,1.83
2018-06-29T13:13:18.502Z,2.00
2018-06-29T13:15:44.449Z,2.00
2018-06-29T13:18:10.356Z,2.30
2018-06-29T13:20:36.260Z,1.70
2018-06-29T13:23:02.207Z,2.10
2018-06-29T13:25:28.128Z,1.80
2018-06-29T13:27:54.047Z,1.73
2018-06-29T13:30:20.022Z,1.70
2018-06-29T13:32:45.915Z,2.20
2018-06-29T13:35:11.852Z,2.17
2018-06-29T13:37:37.758Z,2.33
2018-06-29T13:40:03.688Z,2.10
2018-06-29T13:42:29.582Z,1.70
2018-06-29T13:44:55.512Z,1.77
2018-06-29T13:47:21.416Z,2.07
2018-06-29T13:49:47.364Z,1.40
2018-06-29T13:52:13.263Z,1.97
2018-06-29T13:54:39.183Z,1.90
2018-06-29T13:57:05.146Z,1.60
2018-06-29T13:59:31.107Z,1.50
2018-06-29T14:01:57.035Z,1.80
2018-06-29T14:04:22.973Z,1.60
2018-06-29T14:06:48.888Z,1.37
2018-06-29T14:09:14.847Z,1.80
2018-06-29T14:11:40.755Z,2.17
2018-06-29T14:14:06.689Z,1.43
2018-06-29T14:16:32.588Z,1.80
2018-06-29T14:18:58.534Z,1.37
2018-06-29T14:21:24.447Z,1.40
2018-06-29T14:23:50.354Z,1.67
2018-06-29T14:26:16.278Z,1.40
2018-06-29T14:28:42.190Z,1.23
2018-06-29T14:31:08.132Z,1.47
2018-06-29T14:33:34.071Z,1.60
2018-06-29T14:36:00.772Z,1.33
2018-06-29T14:38:26.689Z,1.20
2018-06-29T14:40:52.637Z,1.47
2018-06-29T14:43:18.550Z,1.57
2018-06-29T14:45:44.492Z,1.17
2018-06-29T14:48:10.406Z,1.50
2018-06-29T14:50:36.326Z,1.20
2018-06-29T14:53:02.232Z,1.30
2018-06-29T14:55:28.188Z,1.30
2018-06-29T14:57:54.102Z,1.07
2018-06-29T15:00:20.090Z,1.53
2018-06-29T15:02:45.999Z,1.57
2018-06-29T15:05:11.930Z,1.40
2018-06-29T15:07:37.841Z,1.27
2018-06-29T15:10:03.790Z,1.30
2018-06-29T15:12:29.691Z,1.57
2018-06-29T15:14:55.631Z,1.20
2018-06-29T15:17:21.554Z,1.20
2018-06-29T15:19:49.103Z,1.00
2018-06-29T15:22:15.793Z,1.40
2018-06-29T15:24:41.707Z,1.20
2018-06-29T15:27:07.674Z,1.50
2018-06-29T15:29:33.567Z,1.10
2018-06-29T15:32:00.240Z,1.30
2018-06-29T15:34:26.150Z,1.23
2018-06-29T15:36:52.089Z,1.60
2018-06-29T15:39:17.997Z,1.40
2018-06-29T15:41:43.957Z,1.03
2018-06-29T15:44:09.878Z,1.30
2018-06-29T15:46:35.801Z,1.17
2018-06-29T15:49:09.357Z,1.30
2018-06-29T15:51:35.297Z,1.70
2018-06-29T15:54:01.205Z,1.30
2018-06-29T15:56:27.151Z,1.10
2018-06-29T15:58:53.066Z,1.70
2018-06-29T16:01:19.010Z,1.10
2018-06-29T16:03:44.935Z,0.90
2018-06-29T16:06:10.868Z,1.37
2018-06-29T16:08:36.775Z,1.23
2018-06-29T16:11:02.698Z,1.13
2018-06-29T16:13:28.616Z,1.10
2018-06-29T16:15:54.547Z,1.47
2018-06-29T16:18:20.467Z,1.53
2018-06-29T16:20:46.409Z,1.20
2018-06-29T16:23:13.057Z,1.20
2018-06-29T16:25:39.742Z,1.10
2018-06-29T16:28:05.649Z,1.30
2018-06-29T16:30:31.592Z,1.40
2018-06-29T16:32:57.528Z,1.63
2018-06-29T16:35:23.437Z,1.40
2018-06-29T16:37:49.390Z,1.50
2018-06-29T16:40:16.066Z,1.50
2018-06-29T16:42:42.021Z,1.47
2018-06-29T16:45:07.932Z,1.77
2018-06-29T16:47:33.885Z,1.63
2018-06-29T16:49:59.797Z,1.83
2018-06-29T16:52:25.727Z,1.33
2018-06-29T16:54:51.648Z,1.23
2018-06-29T16:57:17.590Z,1.53
2018-06-29T16:59:44.247Z,1.40
2018-06-29T17:02:10.915Z,1.53
2018-06-29T17:04:36.828Z,1.10
2018-06-29T17:07:02.779Z,1.50
2018-06-29T17:09:28.674Z,1.20
2018-06-29T17:11:54.618Z,1.70
2018-06-29T17:14:20.558Z,1.10
2018-06-29T17:16:46.496Z,1.40
2018-06-29T17:19:13.150Z,1.37
2018-06-29T17:21:39.096Z,1.23
2018-06-29T17:24:05.010Z,1.93
2018-06-29T17:26:30.969Z,1.70
2018-06-29T17:28:56.955Z,1.33
2018-06-29T17:31:22.846Z,1.57
2018-06-29T17:33:49.512Z,1.33
2018-06-29T17:36:15.450Z,1.30
2018-06-29T17:38:41.389Z,1.40
2018-06-29T17:41:07.300Z,1.30
2018-06-29T17:43:33.251Z,1.10
2018-06-29T17:45:59.170Z,2.07
2018-06-29T17:48:25.123Z,1.73
2018-06-29T17:50:51.776Z,1.10
2018-06-29T17:53:18.447Z,1.20
2018-06-29T17:55:44.373Z,1.70
2018-06-29T17:58:10.317Z,1.53
2018-06-29T18:00:36.222Z,1.60
2018-06-29T18:03:02.162Z,1.67
2018-06-29T18:05:28.087Z,1.67
2018-06-29T18:07:54.015Z,2.20
2018-06-29T18:10:19.938Z,2.10
2018-06-29T18:12:45.893Z,1.80
2018-06-29T18:15:11.801Z,1.80
2018-06-29T18:17:38.465Z,1.57
2018-06-29T18:20:04.363Z,1.53
2018-06-29T18:22:30.304Z,1.97
2018-06-29T18:24:56.214Z,1.80
2018-06-29T18:27:22.142Z,2.17
2018-06-29T18:29:48.143Z,1.97
2018-06-29T18:32:14.042Z,1.90
2018-06-29T18:34:39.972Z,1.87
2018-06-29T18:37:05.904Z,1.90
2018-06-29T18:39:32.552Z,1.87
2018-06-29T18:41:58.501Z,1.70
2018-06-29T18:44:24.662Z,1.60
2018-06-29T18:46:51.335Z,1.83
2018-06-29T18:49:18.009Z,2.17
2018-06-29T18:51:43.922Z,1.80
2018-06-29T18:54:09.859Z,1.67
2018-06-29T18:56:35.779Z,1.70
2018-06-29T18:59:01.731Z,2.27
2018-06-29T19:01:27.700Z,2.10
2018-06-29T19:03:53.607Z,1.60
2018-06-29T19:06:20.256Z,1.77
2018-06-29T19:08:46.192Z,1.93
2018-06-29T19:11:12.098Z,1.83
2018-06-29T19:13:38.036Z,1.80
2018-06-29T19:16:03.939Z,1.33
2018-06-29T19:18:29.920Z,1.50
2018-06-29T19:20:55.810Z,1.87
2018-06-29T19:23:21.752Z,2.23
2018-06-29T19:25:48.394Z,1.93
2018-06-29T19:28:14.322Z,1.97
2018-06-29T19:30:40.338Z,2.07
2018-06-29T19:33:06.174Z,1.87
2018-06-29T19:35:32.094Z,2.23
2018-06-29T19:37:57.996Z,1.70
2018-06-29T19:40:23.917Z,1.50
2018-06-29T19:42:49.839Z,2.00
2018-06-29T19:45:15.786Z,1.87
2018-06-29T19:47:42.452Z,1.70
2018-06-29T19:50:08.383Z,1.77
2018-06-29T19:52:34.319Z,1.73
2018-06-29T19:55:00.261Z,1.73
2018-06-29T19:57:26.179Z,1.93
2018-06-29T19:59:52.113Z,1.70
2018-06-29T20:02:18.762Z,1.73
2018-06-29T20:04:44.795Z,1.77
2018-06-29T20:07:10.680Z,1.97
2018-06-29T20:09:36.629Z,2.27
2018-06-29T20:12:02.541Z,1.60
2018-06-29T20:14:28.484Z,1.47
2018-06-29T20:16:54.390Z,1.83
2018-06-29T20:19:20.370Z,1.63
2018-06-29T20:21:46.282Z,1.50
2018-06-29T20:24:12.221Z,1.70
2018-06-29T20:26:38.138Z,1.93
2018-06-29T20:29:04.079Z,1.20
2018-06-29T20:31:29.982Z,1.93
2018-06-29T20:33:55.930Z,1.80
2018-06-29T20:36:21.848Z,1.93
2018-06-29T20:38:47.872Z,1.90
2018-06-29T20:41:14.442Z,1.80
2018-06-29T20:43:40.388Z,1.80
2018-06-29T20:46:06.335Z,2.27
2018-06-29T20:48:32.292Z,2.37
2018-06-29T20:50:58.225Z,2.40
2018-06-29T20:53:24.131Z,2.23
2018-06-29T20:55:50.840Z,2.23
2018-06-29T20:58:16.776Z,2.07
2018-06-29T21:00:42.735Z,2.60
2018-06-29T21:03:08.708Z,2.30
2018-06-29T21:05:34.685Z,2.47
2018-06-29T21:08:01.335Z,2.53
2018-06-29T21:10:28.007Z,2.77
2018-06-29T21:12:53.902Z,1.77
2018-06-29T21:15:20.582Z,2.50
2018-06-29T21:17:46.533Z,1.93
2018-06-29T21:20:12.451Z,2.13
2018-06-29T21:22:38.357Z,2.37
2018-06-29T21:25:04.312Z,2.43
2018-06-29T21:27:30.960Z,1.97
2018-06-29T21:29:57.639Z,1.90
2018-06-29T21:32:23.547Z,2.50
2018-06-29T21:34:49.493Z,2.27
2018-06-29T21:37:15.402Z,2.87
2018-06-29T21:39:41.340Z,2.63
2018-06-29T21:42:07.356Z,2.30
2018-06-29T21:44:33.289Z,2.47
2018-06-29T21:46:59.220Z,3.03
2018-06-29T21:49:25.134Z,2.50
2018-06-29T21:51:51.071Z,2.97
2018-06-29T21:54:17.018Z,2.10
2018-06-29T21:56:42.940Z,2.97
2018-06-29T21:59:08.871Z,2.10
2018-06-29T22:01:34.798Z,2.27
2018-06-29T22:04:00.714Z,2.40
2018-06-29T22:06:26.644Z,2.53
2018-06-29T22:08:52.561Z,2.73
2018-06-29T22:11:18.524Z,2.67
2018-06-29T22:13:44.441Z,3.03
2018-06-29T22:16:10.376Z,2.33
2018-06-29T22:18:36.275Z,2.63
2018-06-29T22:21:02.207Z,2.60
2018-06-29T22:23:28.116Z,2.43
2018-06-29T22:25:54.076Z,2.20
2018-06-29T22:28:20.734Z,2.10
2018-06-29T22:30:47.410Z,3.37
2018-06-29T22:33:13.341Z,2.47
2018-06-29T22:35:39.301Z,2.77
2018-06-29T22:38:05.988Z,2.30
2018-06-29T22:40:31.983Z,2.07
2018-06-29T22:42:58.658Z,2.00
2018-06-29T22:45:24.602Z,2.80
2018-06-29T22:47:51.305Z,2.27
2018-06-29T22:50:17.215Z,2.07
2018-06-29T22:52:43.203Z,2.00
2018-06-29T22:55:09.896Z,1.87
2018-06-29T22:57:35.885Z,2.87
2018-06-29T23:00:02.559Z,1.97
2018-06-29T23:02:28.515Z,2.63
2018-06-29T23:04:54.430Z,2.80
2018-06-29T23:07:20.401Z,2.43
2018-06-29T23:09:46.348Z,2.03
2018-06-29T23:12:12.283Z,2.87
2018-06-29T23:14:38.199Z,1.50
2018-06-29T23:17:04.173Z,2.20
2018-06-29T23:19:30.838Z,1.80
2018-06-29T23:21:56.779Z,1.90
2018-06-29T23:24:22.684Z,2.07
2018-06-29T23:26:48.632Z,2.83
2018-06-29T23:29:14.551Z,2.87
2018-06-29T23:31:40.487Z,2.83
2018-06-29T23:34:06.403Z,2.27
2018-06-29T23:36:32.339Z,2.63
2018-06-29T23:38:58.263Z,2.50
2018-06-29T23:41:24.204Z,2.60
2018-06-29T23:43:50.111Z,2.30
2018-06-29T23:46:16.039Z,2.10
2018-06-29T23:48:41.949Z,2.17
2018-06-29T23:51:07.883Z,2.07
2018-06-29T23:53:33.788Z,1.97
2018-06-29T23:55:59.690Z,2.13
2018-06-29T23:58:25.614Z,1.87
